Flight Track Log - Related Links

Times and Time Zones

All times are in EDT time to prevent confusion due to time zone crossing. See the DAL3799 flight status page for this flight to view local times or setup timezone preferences in your user account.

Time Position Orientation Groundspeed Altitude Reporting Facility
EDT Latitude Longitude Course Direction KTS MPH feet Rate Location/Type
Tue 12:11:05 PM 43.7289 -96.5392 54° Northeast 266 306 11,000  Level Minneapolis Center
Tue 12:16:26 PM 44.0094 -95.9994 52° Northeast 336 387 11,000  Level Minneapolis Center
Tue 12:17:28 PM 44.0667 -95.9025 51° Northeast 326 375 11,000 49 Level Minneapolis Center
Tue 12:18:29 PM 44.1186 -95.8003 55° Northeast 326 375 11,100 488 Climbing Minneapolis Center
Tue 12:19:31 PM 44.1611 -95.6875 62° Northeast 326 375 12,000 1,113 Climbing Minneapolis Center
Tue 12:20:00 PM 44.0771 -95.8281 52° Northeast  Level FlightAware Approximate
Tue 12:20:33 PM 44.2044 -95.5603 65° Northeast 345 397 13,400  Level Minneapolis Center
Tue 12:21:00 PM 44.1199 -95.7507 52° Northeast  Level FlightAware Approximate
Tue 12:21:34 PM 44.2503 -95.4303 64° Northeast 362 417 15,200  Level Minneapolis Center
Tue 12:22:00 PM 44.1627 -95.6732 52° Northeast  Level FlightAware Approximate
Tue 12:22:36 PM 44.3047 -95.2756 64° Northeast 368 423 17,000  Level Minneapolis Center
Tue 12:24:40 PM 44.3931 -95.0239 65° Northeast 365 420 17,100 32 Climbing Minneapolis Center
Tue 12:25:41 PM 44.4361 -94.8967 65° Northeast 365 420 17,100  Level Minneapolis Center
Tue 12:26:43 PM 44.4814 -94.7667 64° Northeast 365 420 17,100  Level Minneapolis Center
Tue 12:27:45 PM 44.5283 -94.6331 64° Northeast 373 429 17,100  Level Minneapolis Center
Tue 12:28:47 PM 44.5750 -94.4983 64° Northeast 379 436 17,100 -1,643 Level Minneapolis Center
Tue 12:30:33 PM 44.6667 -94.2500 65° Northeast 372 428 12,500 -2,205 Descending Minneapolis TRACON
Tue 12:31:33 PM 44.7000 -94.1167 71° East 359 413 11,000 -750 Descending Minneapolis TRACON
Tue 12:32:33 PM 44.7333 -93.9833 71° East 351 404 11,000  Level Minneapolis TRACON
Tue 12:33:33 PM 44.7667 -93.8500 71° East 346 398 11,000  Level Minneapolis TRACON
Tue 12:34:33 PM 44.7833 -93.7333 79° East 347 399 11,000 -100 Level Minneapolis TRACON
Tue 12:35:33 PM 44.8167 -93.6000 71° East 348 400 10,800 -600 Descending Minneapolis TRACON
Tue 12:36:33 PM 44.8500 -93.4833 68° East 290 334 9,800 -1,250 Descending Minneapolis TRACON
Tue 12:37:33 PM 44.8667 -93.3667 79° East 281 323 8,300 -1,200 Descending Minneapolis TRACON
Tue 12:38:03 PM 44.8489 -93.3311 125° Southeast 272 313 8,000 -1,247 Descending Minneapolis Center
Tue 12:40:07 PM 44.7169 -93.2967 169° South 250 288 5,100 -1,581 Descending Minneapolis Center
Tue 12:41:09 PM 44.7208 -93.2072 86° East 207 238 3,100 -1,065 Descending Minneapolis Center
Tue 12:42:11 PM 44.7628 -93.2086 359° North 170 196 2,900 -484 Descending Minneapolis Center
Tue 12:43:13 PM 44.8042 -93.2211 348° North 158 182 2,100 -823 Descending Minneapolis Center
Tue 12:44:15 PM 44.8486 -93.2322 350° North 137 158 1,200 -871 Descending Minneapolis Center
Tue 12:46:00 PM 44.8667 -93.2167 55° Northeast  Level FlightAware Approximate
Tue 12:53:00 PM 44.8820 -93.2218 55° Northeast  Level Estimated

Login

Don't have an account? Register now (free) for customized features, flight alerts, and more!